RYR35DA LFRB-EBCI
Flight info
| Callsign | RYR35DA |
|---|---|
| Flight time | N/A |
| Altitude | 34000 |
| Route | SOMEN DCT FEJAC UN585 UPALO/N0459F350 UN491 LGL/N0458F360 UT176 ELCOB UN873 BAZOS DCT ARVOL |
| Aircraft | B738/M-SDE2E3FGHIRWXY/LB1 |
Departure
| Time | 2026-04-30 15:11 |
|---|---|
| Airport | Brest Bretagne airport (LFRB) |
Arrival
| Time | N/A |
|---|---|
| Airport | Brussels South Charleroi Airport (EBCI) |
| Time | Latitude | Longitude | Altitude | Speed | Heading |
|---|---|---|---|---|---|
| 2026-04-30 14:41 | 48.44430 | -4.42038 | 331 ft | 0 kts | 161° |
| 2026-04-30 15:01 | 48.44431 | -4.42038 | 331 ft | 1 kts | 161° |
| 2026-04-30 15:01 | 48.44446 | -4.42046 | 327 ft | 3 kts | 161° |
| 2026-04-30 15:01 | 48.44482 | -4.42065 | 329 ft | 3 kts | 144° |
| 2026-04-30 15:02 | 48.44492 | -4.42084 | 326 ft | 3 kts | 96° |
| 2026-04-30 15:02 | 48.44492 | -4.42113 | 330 ft | 3 kts | 75° |
| 2026-04-30 15:03 | 48.44489 | -4.42126 | 331 ft | 0 kts | 71° |
| 2026-04-30 15:04 | 48.44491 | -4.42117 | 327 ft | 3 kts | 71° |
| 2026-04-30 15:05 | 48.44589 | -4.41945 | 331 ft | 8 kts | 63° |
| 2026-04-30 15:06 | 48.44628 | -4.41780 | 331 ft | 9 kts | 71° |
| 2026-04-30 15:06 | 48.44696 | -4.41619 | 332 ft | 10 kts | 13° |
| 2026-04-30 15:07 | 48.44822 | -4.41634 | 332 ft | 10 kts | 31° |
| 2026-04-30 15:07 | 48.44912 | -4.41292 | 324 ft | 23 kts | 71° |
| 2026-04-30 15:08 | 48.45018 | -4.40830 | 322 ft | 22 kts | 71° |
| 2026-04-30 15:08 | 48.45170 | -4.40153 | 313 ft | 20 kts | 71° |
| 2026-04-30 15:09 | 48.45194 | -4.39929 | 316 ft | 5 kts | 102° |
| 2026-04-30 15:09 | 48.45218 | -4.39905 | 316 ft | 3 kts | 310° |
| 2026-04-30 15:10 | 48.45213 | -4.39961 | 314 ft | 0 kts | 252° |
| 2026-04-30 15:11 | 48.45071 | -4.40590 | 321 ft | 123 kts | 251° |
| 2026-04-30 15:11 | 48.44644 | -4.44014 | 2624 ft | 190 kts | 279° |
| 2026-04-30 15:12 | 48.48796 | -4.46841 | 5343 ft | 268 kts | 16° |
| 2026-04-30 15:13 | 48.51451 | -4.42851 | 7340 ft | 280 kts | 65° |
| 2026-04-30 15:14 | 48.55351 | -4.31905 | 10995 ft | 337 kts | 64° |
| 2026-04-30 15:14 | 48.59228 | -4.21721 | 12923 ft | 389 kts | 63° |
| 2026-04-30 15:16 | 48.66291 | -4.03600 | 17251 ft | 413 kts | 62° |
| 2026-04-30 15:17 | 48.72253 | -3.88212 | 20097 ft | 431 kts | 62° |
| 2026-04-30 15:18 | 48.79979 | -3.68135 | 23256 ft | 450 kts | 62° |
| 2026-04-30 15:19 | 48.84155 | -3.55287 | 24745 ft | 454 kts | 79° |